Time;durP1;ratioP1;P1;durP2;ratioP2;P2;SDS_P1;SDS_P2;PMS_P1;PMS_P2;Temp;Humidity;BMP_temperature;BMP_pressure;BME280_temperature;BME280_humidity;BME280_pressure;Samples;Min_cycle;Max_cycle;Signal;HPM_P1;HPM_P2
2022/12/12 00:20:00;;;;;;;4.63;2.92;;;;;;;6.35;79.54;99469.19;5011884;28;20149;-88
2022/12/12 00:22:30;;;;;;;4.20;2.47;;;;;;;6.62;78.95;99516.16;5014146;28;20124;-88
2022/12/12 00:25:14;;;;;;;5.10;2.90;;;;;;;6.45;79.44;99482.41;5006723;28;20030;-89
2022/12/12 00:28:32;;;;;;;4.07;2.72;;;;;;;6.20;79.62;99486.81;4998660;28;20081;-88
2022/12/12 00:31:01;;;;;;;5.60;3.20;;;;;;;6.12;79.87;99482.31;4996862;28;20115;-89
2022/12/12 00:33:53;;;;;;;5.63;3.47;;;;;;;6.10;79.61;99479.78;4985641;28;20053;-89
2022/12/12 00:36:27;;;;;;;4.93;3.40;;;;;;;6.39;79.39;99531.97;5019852;28;20098;-89
2022/12/12 00:41:28;;;;;;;5.97;3.50;;;;;;;6.40;79.23;99524.78;5032481;28;20046;-88
2022/12/12 00:54:33;;;;;;;7.03;4.53;;;;;;;6.19;80.00;99542.03;5054319;28;20296;-89
2022/12/12 00:57:47;;;;;;;7.07;4.20;;;;;;;6.19;79.31;99547.38;5668818;23;20049;-89
2022/12/12 01:01:05;;;;;;;7.75;4.82;;;;;;;6.03;79.37;99552.63;5014359;28;20106;-91
2022/12/12 01:25:31;;;;;;;9.23;5.97;;;;;;;5.41;77.94;99569.53;1749266;22;20049;-88
2022/12/12 01:28:04;;;;;;;10.18;6.05;;;;;;;5.60;77.75;99581.84;5024793;28;20053;-87
2022/12/12 01:30:32;;;;;;;11.23;6.63;;;;;;;5.29;77.36;99549.44;5032655;28;20037;-90
2022/12/12 01:33:04;;;;;;;11.77;7.03;;;;;;;5.38;77.79;99574.31;4999783;28;20044;-89
2022/12/12 01:36:16;;;;;;;10.65;6.65;;;;;;;5.54;77.44;99593.13;5006457;28;20057;-87
2022/12/12 01:39:44;;;;;;;9.63;6.25;;;;;;;5.33;77.57;99561.47;5047727;28;20076;-88
2022/12/12 02:10:42;;;;;;;13.60;7.03;;;;;;;5.13;78.39;99640.75;4220988;26;20085;-88
2022/12/12 02:14:11;;;;;;;13.55;7.55;;;;;;;4.83;77.95;99601.97;4987345;28;20038;-89
2022/12/12 02:25:52;;;;;;;11.98;7.00;;;;;;;5.07;77.54;99641.31;5049566;22;20038;-92
2022/12/12 02:42:20;;;;;;;13.23;7.47;;;;;;;5.03;77.23;99662.13;4569049;22;20066;-88
2022/12/12 02:56:02;;;;;;;14.77;8.33;;;;;;;4.75;77.01;99625.81;5377907;22;20312;-93
2022/12/12 03:08:48;;;;;;;13.98;7.82;;;;;;;4.73;76.54;99665.94;4997576;28;20038;-90
2022/12/12 05:25:52;;;;;;;16.75;7.10;;;;;;;4.15;72.44;99836.41;4971627;28;20081;-88
2022/12/12 05:29:08;;;;;;;12.80;7.20;;;;;;;4.12;71.67;99853.47;4975851;28;20037;-89
2022/12/12 05:32:00;;;;;;;13.70;7.60;;;;;;;4.14;71.47;99846.19;4967242;28;20035;-90
2022/12/12 05:34:29;;;;;;;14.98;7.63;;;;;;;4.19;71.46;99853.75;4980646;28;20066;-89
2022/12/12 05:40:04;;;;;;;13.77;8.07;;;;;;;4.25;71.64;99847.88;5013684;28;20122;-89
2022/12/12 05:42:35;;;;;;;17.45;8.13;;;;;;;4.25;71.60;99857.69;4999058;28;20054;-89
2022/12/12 05:45:08;;;;;;;19.48;8.73;;;;;;;4.28;71.24;99873.34;5004178;28;20046;-88
2022/12/12 05:48:23;;;;;;;14.15;8.25;;;;;;;4.52;70.74;99891.56;4997080;28;20153;-89
2022/12/12 05:54:00;;;;;;;20.30;9.88;;;;;;;4.60;71.10;99879.22;5014620;28;20346;-90
2022/12/12 05:57:29;;;;;;;17.33;8.65;;;;;;;4.56;70.89;99883.16;4979968;28;20085;-89
2022/12/12 06:00:18;;;;;;;19.55;10.10;;;;;;;4.66;70.96;99877.84;5002721;28;20068;-86
2022/12/12 06:02:58;;;;;;;20.98;11.07;;;;;;;4.62;70.67;99876.44;4995621;28;20026;-88
2022/12/12 06:05:33;;;;;;;18.33;8.52;;;;;;;4.61;70.52;99890.72;4996024;28;20027;-87
2022/12/12 06:08:31;;;;;;;17.20;8.35;;;;;;;4.69;69.56;99882.88;4983499;28;20026;-89
2022/12/12 07:10:42;;;;;;;12.48;7.28;;;;;;;8.35;57.64;99934.63;5369346;22;20365;-91
2022/12/12 07:14:07;;;;;;;16.92;7.53;;;;;;;10.35;52.06;99938.31;5353860;22;20061;-91
2022/12/12 07:16:59;;;;;;;11.07;6.68;;;;;;;12.11;46.35;99934.50;5408785;22;20037;-84
2022/12/12 07:19:27;;;;;;;14.20;6.82;;;;;;;13.45;43.56;99969.03;5427404;23;20033;-92
2022/12/12 07:22:36;;;;;;;12.18;6.72;;;;;;;14.01;41.40;99963.56;5038095;28;20056;-91
2022/12/12 07:28:30;;;;;;;14.25;6.57;;;;;;;13.45;41.85;99963.63;5532611;22;20024;-89
2022/12/12 07:30:56;;;;;;;13.20;6.97;;;;;;;12.76;43.15;99966.94;5026571;23;20050;-92
2022/12/12 07:33:24;;;;;;;13.98;7.78;;;;;;;11.74;45.69;99970.44;5127256;23;20106;-87
2022/12/12 07:39:01;;;;;;;11.65;6.97;;;;;;;10.18;48.81;99955.50;5305370;22;20101;-87
2022/12/12 07:41:29;;;;;;;19.83;6.45;;;;;;;10.02;49.77;99979.75;4997893;28;20062;-87
2022/12/12 07:43:57;;;;;;;13.68;6.90;;;;;;;9.57;50.58;99975.84;4968756;28;20128;-89
2022/12/12 07:46:30;;;;;;;16.30;7.10;;;;;;;10.61;48.05;99934.47;4996905;28;20109;-87
2022/12/12 07:49:50;;;;;;;10.63;6.70;;;;;;;11.69;45.43;99970.16;5002353;28;20113;-91
2022/12/12 07:55:04;;;;;;;14.63;6.68;;;;;;;13.85;40.76;99956.59;5702299;22;20843;-88
2022/12/12 07:57:44;;;;;;;;;;;;;;;16.00;37.18;99971.09;5009193;23;20089;-91
2022/12/12 08:06:48;;;;;;;11.43;6.43;;;;;;;18.02;31.20;99994.00;5421583;22;20073;-88
2022/12/12 08:09:21;;;;;;;8.52;6.32;;;;;;;16.87;33.67;99982.41;4987834;28;20046;-89
2022/12/12 08:14:26;;;;;;;12.73;6.68;;;;;;;16.29;35.57;99995.19;5106488;22;20471;-89
2022/12/12 08:17:20;;;;;;;14.15;6.47;;;;;;;17.07;34.27;100024.91;4997954;28;20046;-91
2022/12/12 08:19:48;;;;;;;12.55;6.35;;;;;;;17.23;33.55;100020.81;4996375;28;20065;-90
2022/12/12 08:22:38;;;;;;;13.93;7.07;;;;;;;16.68;34.69;100024.88;5012144;28;20034;-94
2022/12/12 08:25:19;;;;;;;12.25;7.40;;;;;;;16.31;35.77;100025.66;5027305;28;20053;-90
2022/12/12 08:28:06;;;;;;;13.40;7.45;;;;;;;15.18;37.28;100000.34;5022397;28;20049;-89
2022/12/12 08:30:47;;;;;;;13.10;6.80;;;;;;;15.43;37.03;100026.81;5025424;28;20037;-87
2022/12/12 08:33:36;;;;;;;12.43;7.38;;;;;;;14.95;37.86;100003.44;5019690;28;20050;-89
2022/12/12 08:44:43;;;;;;;12.90;5.70;;;;;;;11.84;44.78;100006.81;5101428;22;20050;-87
2022/12/12 08:47:09;;;;;;;8.80;5.60;;;;;;;11.13;45.85;100002.81;5032999;28;20141;-85
2022/12/12 08:49:36;;;;;;;8.65;5.38;;;;;;;10.87;46.57;100014.78;5007752;28;20049;-88
2022/12/12 08:52:08;;;;;;;8.00;5.07;;;;;;;10.45;47.79;100001.75;5040134;28;20057;-89
2022/12/12 08:54:41;;;;;;;11.27;5.57;;;;;;;10.29;48.89;100014.25;5011864;28;20045;-88
2022/12/12 08:57:12;;;;;;;8.63;5.10;;;;;;;10.26;49.02;100019.13;5010052;28;20049;-89
2022/12/12 08:59:39;;;;;;;10.70;5.75;;;;;;;10.19;49.04;100021.66;4995763;28;20054;-87
2022/12/12 09:02:13;;;;;;;12.50;5.97;;;;;;;10.08;49.72;100024.72;4990296;28;20069;-88
2022/12/12 09:05:00;;;;;;;13.32;6.00;;;;;;;10.25;49.23;100022.81;5003516;28;20049;-86
2022/12/12 09:07:29;;;;;;;10.27;5.82;;;;;;;9.98;50.43;100026.78;5003217;28;20060;-86
2022/12/12 09:09:56;;;;;;;12.63;6.32;;;;;;;9.77;50.37;100032.69;5009221;28;20041;-87
2022/12/12 09:12:32;;;;;;;15.40;6.25;;;;;;;9.66;51.01;100041.94;5013213;28;20061;-88
2022/12/12 09:15:35;;;;;;;12.90;6.45;;;;;;;9.50;50.94;100040.97;5016145;28;20053;-85
2022/12/12 09:18:27;;;;;;;13.15;6.15;;;;;;;9.43;51.75;100055.19;5009048;28;20056;-87
2022/12/12 09:21:52;;;;;;;14.25;8.07;;;;;;;9.11;54.04;100037.25;5008015;28;20053;-89
2022/12/12 09:24:24;;;;;;;22.35;10.60;;;;;;;9.16;55.29;100026.88;5013778;28;20046;-86
2022/12/12 09:26:49;;;;;;;22.15;11.70;;;;;;;8.91;56.25;100024.16;4978144;28;20156;-89
2022/12/12 09:29:19;;;;;;;22.02;12.40;;;;;;;9.17;56.86;100053.53;4981773;28;20109;-87
2022/12/12 09:31:46;;;;;;;26.67;13.63;;;;;;;8.99;58.22;100052.81;5005844;28;20057;-86
2022/12/12 09:34:13;;;;;;;28.67;14.07;;;;;;;8.67;59.11;100046.41;5005971;28;20046;-85
2022/12/12 09:36:41;;;;;;;20.90;12.95;;;;;;;8.48;59.69;100019.91;5020401;28;20050;-87
2022/12/12 09:39:10;;;;;;;21.73;12.55;;;;;;;8.55;60.70;100051.22;5002080;28;20057;-88
2022/12/12 09:41:36;;;;;;;22.35;12.65;;;;;;;8.19;62.63;100039.84;5401875;22;20430;-88
2022/12/12 09:44:05;;;;;;;22.60;13.25;;;;;;;8.57;62.96;100064.44;4990221;28;20042;-85
2022/12/12 09:46:50;;;;;;;23.23;12.07;;;;;;;8.35;62.45;100053.28;4970338;28;20451;-87
2022/12/12 09:49:39;;;;;;;18.17;10.73;;;;;;;8.53;61.85;100055.91;4983875;28;20063;-86
2022/12/12 09:52:28;;;;;;;22.83;11.70;;;;;;;8.33;62.08;100059.81;4977823;28;20043;-88
2022/12/12 09:54:56;;;;;;;20.75;11.00;;;;;;;8.42;61.46;100066.91;4990305;28;20184;-87
2022/12/12 09:57:34;;;;;;;19.67;10.73;;;;;;;8.35;61.55;100069.38;4986528;28;20046;-88
2022/12/12 10:03:11;;;;;;;24.33;12.02;;;;;;;8.42;61.04;100074.94;5148644;22;20046;-88
2022/12/12 10:06:06;;;;;;;20.42;11.18;;;;;;;8.40;59.85;100048.31;4998970;28;20064;-90
2022/12/12 10:09:01;;;;;;;19.10;10.95;;;;;;;8.60;59.66;100069.50;5012945;28;20035;-90
2022/12/12 10:18:15;;;;;;;24.95;13.23;;;;;;;9.02;58.77;100057.88;5021464;28;20077;-89
2022/12/12 10:21:17;;;;;;;23.40;13.32;;;;;;;9.01;58.69;100073.13;5016930;28;20046;-89
2022/12/12 10:24:51;;;;;;;25.10;14.52;;;;;;;8.93;59.22;100067.75;5032060;28;20041;-90
2022/12/12 10:27:19;;;;;;;27.48;14.60;;;;;;;8.92;59.12;100066.06;5013725;28;20057;-90
2022/12/12 10:30:30;;;;;;;28.23;15.02;;;;;;;9.36;58.16;100068.44;5015455;28;20037;-90
2022/12/12 10:33:23;;;;;;;24.23;14.48;;;;;;;9.54;56.61;100048.66;5012787;28;20034;-90
2022/12/12 10:36:50;;;;;;;28.95;14.02;;;;;;;10.30;54.94;100042.81;5019805;28;20113;-89
2022/12/12 10:39:50;;;;;;;21.80;12.75;;;;;;;11.07;53.27;100052.78;5022930;28;20045;-89
2022/12/12 10:43:03;;;;;;;22.15;12.00;;;;;;;11.19;51.75;100053.19;5028844;28;20042;-88
2022/12/12 10:45:57;;;;;;;17.60;10.90;;;;;;;11.79;50.83;100054.19;5029676;28;20084;-90
2022/12/12 10:48:23;;;;;;;18.73;10.75;;;;;;;12.22;49.03;100043.66;5012639;28;20064;-90
2022/12/12 10:51:00;;;;;;;22.20;11.30;;;;;;;12.37;48.40;100044.50;4994857;28;20034;-90
2022/12/12 10:53:58;;;;;;;26.20;12.93;;;;;;;12.15;48.94;100045.41;5003401;28;20084;-89
2022/12/12 10:56:33;;;;;;;22.80;12.60;;;;;;;12.24;48.62;100036.22;5021176;28;20072;-88
2022/12/12 10:59:02;;;;;;;24.60;13.23;;;;;;;12.46;48.04;100020.97;4999781;28;20030;-89
2022/12/12 11:01:58;;;;;;;23.95;13.27;;;;;;;12.83;46.85;100036.13;4986676;28;20062;-90
2022/12/12 11:04:47;;;;;;;24.13;13.00;;;;;;;12.86;46.83;100034.91;5010459;28;20057;-91
2022/12/12 11:07:27;;;;;;;21.88;13.02;;;;;;;13.39;45.48;100008.47;5034880;28;20062;-90
2022/12/12 11:11:13;;;;;;;23.02;13.55;;;;;;;14.74;42.08;99990.06;5011623;28;20141;-91
2022/12/12 11:14:41;;;;;;;26.23;13.93;;;;;;;15.89;40.04;100027.84;5036374;28;20040;-88
2022/12/12 11:17:51;;;;;;;25.27;13.60;;;;;;;16.86;38.65;100009.78;5086316;22;20908;-88
2022/12/12 11:21:14;;;;;;;17.55;10.77;;;;;;;17.42;36.73;100017.13;5030925;28;20125;-89
2022/12/12 11:24:08;;;;;;;17.15;9.40;;;;;;;16.86;37.31;99996.22;5116359;22;20081;31
2022/12/12 11:27:27;;;;;;;18.15;10.13;;;;;;;16.30;38.65;100022.13;4982751;28;20090;-89
2022/12/12 11:30:22;;;;;;;16.42;8.18;;;;;;;15.41;39.76;100018.91;5021398;28;20038;-89
2022/12/12 11:33:08;;;;;;;11.82;7.25;;;;;;;14.54;41.72;100031.44;4984637;28;20110;-89
2022/12/12 11:35:41;;;;;;;19.00;8.55;;;;;;;14.41;42.13;100011.56;4997814;28;20054;-91
2022/12/12 11:38:49;;;;;;;15.10;8.85;;;;;;;14.67;42.02;100018.97;5011329;28;20034;-86
2022/12/12 11:41:17;;;;;;;14.30;8.20;;;;;;;14.65;42.02;100023.75;5005864;28;20034;-90
2022/12/12 11:44:05;;;;;;;24.13;8.70;;;;;;;14.08;43.27;99996.84;4983532;28;20050;-89
2022/12/12 11:46:35;;;;;;;15.52;9.13;;;;;;;13.84;44.00;100010.88;4997129;28;20072;-89
2022/12/12 11:49:05;;;;;;;18.83;8.43;;;;;;;13.94;43.76;100049.16;4997459;28;20030;-90
2022/12/12 11:51:59;;;;;;;14.70;8.60;;;;;;;14.10;43.22;100035.34;4999321;28;20066;-89
2022/12/12 11:55:06;;;;;;;17.25;7.30;;;;;;;14.04;43.39;100043.41;4981466;28;20066;-91
2022/12/12 11:58:43;;;;;;;23.02;9.10;;;;;;;14.24;43.45;100048.94;5028710;28;20118;-91
2022/12/12 12:01:57;;;;;;;17.10;8.57;;;;;;;13.60;44.33;100042.69;5005208;28;20045;-87
2022/12/12 12:04:49;;;;;;;14.05;8.07;;;;;;;13.50;44.31;100036.78;5000850;28;20116;-89
2022/12/12 12:07:24;;;;;;;15.25;8.18;;;;;;;13.39;44.54;100051.66;5000415;28;20057;-90
2022/12/12 12:10:23;;;;;;;10.90;6.80;;;;;;;13.15;44.45;100060.94;5021599;28;20230;-88
2022/12/12 12:13:40;;;;;;;9.35;6.03;;;;;;;13.02;44.14;100044.63;4969720;28;20031;-89
2022/12/12 12:16:56;;;;;;;10.10;5.85;;;;;;;12.72;45.68;100071.69;5017621;28;20054;-89
2022/12/12 12:20:01;;;;;;;14.32;6.22;;;;;;;12.09;46.61;100073.13;5054140;22;20044;-88
2022/12/12 12:22:56;;;;;;;12.30;6.35;;;;;;;11.86;46.55;100041.66;5027397;28;20038;-90
2022/12/12 12:26:07;;;;;;;15.30;7.85;;;;;;;12.04;46.84;100069.13;5034919;28;20076;-91
2022/12/12 12:29:06;;;;;;;14.10;7.82;;;;;;;11.94;47.27;100057.78;5027204;28;20117;-87
2022/12/12 12:32:27;;;;;;;13.50;6.88;;;;;;;12.40;46.50;100076.44;5035126;28;20037;-90
2022/12/12 12:35:27;;;;;;;12.07;7.57;;;;;;;12.82;45.36;100079.47;5036018;28;20033;-90
2022/12/12 12:37:56;;;;;;;15.38;8.60;;;;;;;12.76;45.72;100077.53;5020635;28;20546;-89
2022/12/12 12:40:29;;;;;;;16.52;8.38;;;;;;;12.66;45.55;100073.25;5033465;28;20103;-88
2022/12/12 12:43:31;;;;;;;12.07;8.02;;;;;;;12.70;45.78;100083.69;5024038;28;20042;-86
2022/12/12 12:46:34;;;;;;;15.85;8.60;;;;;;;12.73;45.90;100084.13;5162857;22;20123;-90
2022/12/12 12:49:15;;;;;;;13.75;7.63;;;;;;;12.65;45.79;100092.34;5069333;23;20128;-88
2022/12/12 12:52:09;;;;;;;15.20;8.35;;;;;;;12.13;46.75;100094.13;5086330;22;20054;-87
2022/12/12 12:54:56;;;;;;;14.85;7.68;;;;;;;12.41;46.80;100080.00;5017430;28;20048;-89
2022/12/12 12:57:44;;;;;;;13.80;8.48;;;;;;;12.44;46.63;100076.94;5032335;28;20021;-88
2022/12/12 13:05:33;;;;;;;16.75;8.88;;;;;;;12.07;48.07;100077.84;5050748;28;20091;-85
2022/12/12 13:10:49;;;;;;;37.17;20.25;;;;;;;11.94;49.10;100073.97;5426184;22;20042;-89
2022/12/12 13:14:06;;;;;;;19.25;10.02;;;;;;;12.08;48.72;100063.34;4978724;28;20132;-88
2022/12/12 13:28:16;;;;;;;18.80;9.77;;;;;;;11.29;50.84;100048.44;4998732;28;20134;-90
2022/12/12 13:31:22;;;;;;;15.27;8.63;;;;;;;11.54;50.69;100072.44;4992912;28;20058;-91
2022/12/12 13:34:12;;;;;;;20.25;9.38;;;;;;;11.22;51.23;100057.41;4990839;28;20127;-89
2022/12/12 13:36:43;;;;;;;17.48;10.02;;;;;;;11.20;51.86;100082.63;4943181;28;20110;-90
2022/12/12 13:40:01;;;;;;;20.33;10.93;;;;;;;10.97;52.17;100055.72;4970318;28;20037;-89
2022/12/12 13:42:55;;;;;;;20.42;10.27;;;;;;;10.75;52.96;100059.22;4954874;28;20101;-90
2022/12/12 13:45:46;;;;;;;25.75;9.82;;;;;;;10.65;52.95;100055.91;4983531;28;20039;-88
2022/12/12 13:48:25;;;;;;;26.65;11.73;;;;;;;10.81;53.65;100100.69;4982144;28;20158;-88
2022/12/12 13:51:33;;;;;;;18.20;10.35;;;;;;;10.63;54.19;100096.41;4980985;28;20037;-87
2022/12/12 13:54:13;;;;;;;23.67;10.55;;;;;;;10.64;54.23;100103.47;4986523;28;20058;-91
2022/12/12 13:56:56;;;;;;;22.58;10.40;;;;;;;10.43;54.96;100100.53;4989073;28;20047;-90
2022/12/12 13:59:30;;;;;;;23.08;9.57;;;;;;;10.27;55.34;100112.13;4986619;28;20047;-86
2022/12/12 14:02:20;;;;;;;17.33;9.25;;;;;;;10.14;55.92;100104.63;4962793;28;20428;-90
2022/12/12 14:05:06;;;;;;;18.30;9.25;;;;;;;9.87;56.74;100112.03;4995308;28;20043;-94
2022/12/12 14:07:34;;;;;;;19.92;9.93;;;;;;;9.73;57.24;100110.03;4952959;28;20055;-90
2022/12/12 14:10:49;;;;;;;15.13;9.63;;;;;;;9.75;57.59;100121.44;4974576;28;20050;-87
2022/12/12 14:14:04;;;;;;;24.27;10.63;;;;;;;9.64;58.24;100127.16;4997685;28;20035;-90
2022/12/12 14:16:41;;;;;;;20.60;10.45;;;;;;;9.49;58.58;100122.44;4997436;28;20050;-88
2022/12/12 14:28:28;;;;;;;25.20;12.70;;;;;;;8.88;60.37;100084.31;1473992;26;20050;-90
2022/12/12 14:31:24;;;;;;;20.50;10.50;;;;;;;8.77;60.47;100078.44;5022002;22;20042;-91
2022/12/12 14:34:07;;;;;;;21.92;11.40;;;;;;;8.88;61.28;100123.69;4960653;28;20395;-86
2022/12/12 14:37:11;;;;;;;22.35;11.52;;;;;;;8.81;61.26;100128.03;4981042;28;20047;-87
2022/12/12 14:39:56;;;;;;;27.83;11.45;;;;;;;8.81;61.43;100134.22;5030950;22;20064;-87
2022/12/12 14:49:04;;;;;;;40.50;12.57;;;;;;;8.84;61.56;100125.03;5029476;28;19943;-89
2022/12/12 14:51:39;;;;;;;24.73;13.55;;;;;;;8.70;62.01;100133.69;5030843;28;20058;-88
2022/12/12 14:54:19;;;;;;;23.27;13.55;;;;;;;8.74;62.19;100129.69;4988609;28;20041;-87
2022/12/12 14:56:52;;;;;;;23.10;12.50;;;;;;;8.56;61.74;100095.78;5201502;22;20058;-87
2022/12/12 14:59:22;;;;;;;31.05;13.43;;;;;;;8.62;61.24;100089.78;5008240;28;20034;-88
2022/12/12 15:04:32;;;;;;;30.35;14.80;;;;;;;8.78;61.53;100133.69;5005876;28;20054;-87
2022/12/12 15:07:05;;;;;;;26.48;14.23;;;;;;;8.68;61.79;100119.59;4963019;28;20055;-85
2022/12/12 15:09:54;;;;;;;32.17;15.13;;;;;;;8.74;61.76;100122.47;4983343;28;20105;-85
2022/12/12 15:12:24;;;;;;;36.47;17.38;;;;;;;8.57;62.59;100118.91;4964029;28;20051;-83
2022/12/12 15:14:54;;;;;;;33.30;17.98;;;;;;;8.56;62.78;100135.97;4994718;28;20055;-85
2022/12/12 15:17:30;;;;;;;36.92;18.55;;;;;;;8.43;63.25;100131.06;4992525;28;20056;-87
2022/12/12 15:20:07;;;;;;;41.97;19.63;;;;;;;8.59;63.11;100127.63;4999647;28;20045;-85
2022/12/12 15:22:57;;;;;;;50.92;26.35;;;;;;;8.37;62.99;100079.94;4951999;28;20121;-85
2022/12/12 15:25:31;;;;;;;45.00;21.70;;;;;;;8.65;62.74;100115.41;4991522;28;20506;-86
2022/12/12 15:27:57;;;;;;;39.22;18.90;;;;;;;8.65;62.83;100134.16;4971109;28;20104;-86
2022/12/12 15:30:41;;;;;;;42.65;18.13;;;;;;;8.71;63.02;100125.50;4978554;28;20078;-87
2022/12/12 15:33:34;;;;;;;38.95;17.42;;;;;;;8.56;63.44;100119.88;4977501;28;20043;-85
2022/12/12 15:36:03;;;;;;;29.80;15.75;;;;;;;8.58;63.52;100114.38;4994791;28;20153;-87
2022/12/12 15:38:32;;;;;;;39.13;18.55;;;;;;;8.64;63.21;100105.69;4986698;28;20042;-85
2022/12/12 15:41:00;;;;;;;30.25;16.20;;;;;;;8.73;62.77;100119.94;4964297;28;20061;-84
2022/12/12 15:43:34;;;;;;;32.95;16.20;;;;;;;8.63;62.92;100109.38;4972691;28;20046;-87
2022/12/12 15:46:13;;;;;;;42.90;20.25;;;;;;;8.70;63.43;100112.25;4997590;28;20054;-87
2022/12/12 15:48:43;;;;;;;63.88;25.90;;;;;;;8.60;63.60;100097.13;4981750;28;20046;-85
2022/12/12 15:51:12;;;;;;;62.83;25.65;;;;;;;8.55;64.19;100115.53;4980097;28;20045;-84
2022/12/12 15:53:42;;;;;;;64.20;26.65;;;;;;;8.50;64.67;100117.88;4989327;28;20129;-87
2022/12/12 15:56:36;;;;;;;66.00;27.52;;;;;;;8.39;64.56;100094.00;5012946;28;20051;-88
2022/12/12 15:59:23;;;;;;;52.80;25.83;;;;;;;8.59;64.51;100121.41;5018157;28;20544;-87
2022/12/12 16:01:49;;;;;;;58.28;25.58;;;;;;;8.52;64.56;100109.66;4984715;28;20058;-88
2022/12/12 16:04:28;;;;;;;55.38;25.08;;;;;;;8.27;65.15;100085.41;4994460;28;20057;-87
2022/12/12 16:06:54;;;;;;;63.17;27.48;;;;;;;8.36;65.33;100107.72;5016504;28;20037;-86
2022/12/12 16:09:47;;;;;;;66.68;27.45;;;;;;;8.35;64.92;100112.22;4966777;28;20102;-87
2022/12/12 16:12:51;;;;;;;54.33;24.95;;;;;;;8.26;65.22;100115.84;5005553;28;20054;-85
2022/12/12 16:15:46;;;;;;;53.20;24.60;;;;;;;8.31;64.77;100123.41;5005176;28;20046;-89
2022/12/12 16:18:17;;;;;;;51.85;23.23;;;;;;;8.17;65.10;100133.72;4990675;28;20057;-89
2022/12/12 16:20:54;;;;;;;51.55;23.88;;;;;;;8.03;65.14;100119.09;4974429;28;20057;-87
2022/12/12 16:23:40;;;;;;;65.00;26.10;;;;;;;7.87;66.19;100126.19;4981524;28;20045;-87
2022/12/12 16:26:10;;;;;;;64.45;28.00;;;;;;;8.06;66.13;100141.19;4974627;28;20098;-87
2022/12/12 16:28:39;;;;;;;62.25;27.40;;;;;;;8.05;65.94;100143.00;4971630;28;20102;-87
2022/12/12 16:31:12;;;;;;;58.28;27.65;;;;;;;7.81;65.91;100108.88;4964923;28;20035;-86
2022/12/12 16:33:40;;;;;;;62.58;28.02;;;;;;;7.96;66.03;100146.63;4988863;28;20057;-90
2022/12/12 16:36:17;;;;;;;62.50;29.45;;;;;;;7.98;66.54;100144.63;4974760;28;20030;-87
2022/12/12 16:38:49;;;;;;;63.30;27.85;;;;;;;7.72;66.87;100107.97;4992107;28;20065;-86
2022/12/12 16:41:30;;;;;;;56.08;29.15;;;;;;;7.80;66.97;100126.78;4996240;28;20093;-86
2022/12/12 16:49:37;;;;;;;92.03;43.45;;;;;;;7.63;68.20;100150.88;5053890;23;20093;-88
2022/12/12 16:52:04;;;;;;;94.03;41.50;;;;;;;7.38;68.88;100132.78;4998842;28;20066;-87
2022/12/12 16:54:35;;;;;;;74.28;38.50;;;;;;;7.50;68.83;100145.94;4999952;28;20052;-88
2022/12/12 16:57:01;;;;;;;81.25;39.40;;;;;;;7.47;68.97;100135.53;4988009;28;20038;-85
2022/12/12 16:59:33;;;;;;;88.95;39.95;;;;;;;7.28;69.99;100139.19;5003312;28;20042;-86
2022/12/12 17:02:02;;;;;;;86.65;39.30;;;;;;;7.33;69.68;100145.78;5002431;28;20042;-86
2022/12/12 17:04:29;;;;;;;90.82;40.13;;;;;;;7.43;69.55;100151.06;5005154;28;20040;-89
2022/12/12 17:06:56;;;;;;;;;;;;;;;7.41;70.00;100150.38;4985813;28;20064;-86
2022/12/12 17:09:48;;;;;;;82.32;39.42;;;;;;;7.28;70.78;100137.38;5019983;28;20060;-92
2022/12/12 17:12:18;;;;;;;82.22;37.33;;;;;;;7.40;70.53;100136.16;4994094;28;20065;-89
2022/12/12 17:18:15;;;;;;;84.05;36.92;;;;;;;7.36;70.93;100145.47;3559979;22;20126;-92
2022/12/12 17:21:01;;;;;;;97.47;41.85;;;;;;;7.42;70.44;100153.88;5005741;28;20069;-89
2022/12/12 17:26:05;;;;;;;98.50;42.42;;;;;;;7.35;70.41;100133.09;5030596;28;20042;-87
2022/12/12 17:28:34;;;;;;;94.95;41.65;;;;;;;7.43;70.31;100150.22;5007336;28;20074;-87
2022/12/12 17:31:01;;;;;;;111.13;45.50;;;;;;;7.43;70.39;100147.56;4994554;28;20046;-88
2022/12/12 17:33:30;;;;;;;89.38;40.95;;;;;;;7.26;71.27;100150.06;4975752;28;20038;-87
2022/12/12 17:36:16;;;;;;;102.78;43.53;;;;;;;7.21;71.49;100135.44;4994369;28;20046;-89
2022/12/12 17:38:46;;;;;;;104.95;46.67;;;;;;;7.31;71.08;100141.59;5012247;28;20093;-87
2022/12/12 17:47:07;;;;;;;86.20;33.33;;;;;;;7.31;71.08;100139.75;5638385;23;20289;-92
2022/12/12 17:56:25;;;;;;;87.93;34.80;;;;;;;7.45;71.19;100158.94;5307896;22;20038;-92
2022/12/12 18:10:27;;;;;;;93.55;40.92;;;;;;;7.26;71.51;100136.69;4105035;22;20578;-91
2022/12/12 19:10:45;;;;;;;84.88;42.72;;;;;;;7.64;71.73;100134.69;5692782;23;20038;-94
2022/12/12 19:20:07;;;;;;;81.20;42.80;;;;;;;7.36;72.51;100102.69;5288156;22;20170;-91
2022/12/12 19:45:12;;;;;;;52.40;26.08;;;;;;;7.68;70.89;100180.69;4728467;22;20042;-87
2022/12/12 19:50:29;;;;;;;44.00;20.10;;;;;;;7.62;69.61;100176.81;5017134;22;20085;-90
2022/12/12 19:53:19;;;;;;;37.42;18.92;;;;;;;7.63;68.96;100183.00;5197536;22;20298;-87
2022/12/12 19:58:35;;;;;;;32.95;18.23;;;;;;;7.25;69.77;100148.38;4992172;28;20098;-89
2022/12/12 20:01:34;;;;;;;34.75;17.30;;;;;;;7.32;70.16;100170.84;4960741;28;20686;-85
2022/12/12 20:04:20;;;;;;;30.52;16.83;;;;;;;7.37;69.72;100154.34;4964913;28;20503;-87
2022/12/12 20:06:48;;;;;;;30.88;17.55;;;;;;;7.38;69.51;100156.88;4974421;28;20042;-86
2022/12/12 20:09:31;;;;;;;33.65;17.52;;;;;;;7.48;69.56;100170.16;4952602;28;20030;-88
2022/12/12 20:12:26;;;;;;;33.97;17.52;;;;;;;7.20;69.68;100126.59;4974519;28;20121;-88
2022/12/12 20:14:51;;;;;;;31.77;17.02;;;;;;;7.37;69.78;100167.69;4971115;28;20042;-89
2022/12/12 20:17:22;;;;;;;36.10;16.95;;;;;;;7.49;69.41;100163.84;4950951;28;20114;-87
2022/12/12 20:19:50;;;;;;;38.58;19.48;;;;;;;7.56;68.99;100154.19;4997321;28;20042;-86
2022/12/12 20:22:18;;;;;;;35.03;17.45;;;;;;;7.52;69.17;100151.97;4981054;28;20030;-88
2022/12/12 20:27:19;;;;;;;32.30;17.33;;;;;;;7.65;68.69;100152.41;5072582;22;20585;-84
2022/12/12 20:29:46;;;;;;;30.50;16.35;;;;;;;7.48;69.44;100153.28;4982570;28;20298;-86
2022/12/12 20:32:23;;;;;;;32.00;16.30;;;;;;;7.43;69.18;100134.19;5006220;28;20054;-88
2022/12/12 20:35:26;;;;;;;30.40;16.17;;;;;;;7.50;69.38;100157.47;5014787;28;20072;-91
2022/12/12 20:38:25;;;;;;;29.80;15.90;;;;;;;7.38;69.73;100159.53;5041855;23;20054;-90
2022/12/12 20:40:54;;;;;;;33.75;16.90;;;;;;;7.48;70.04;100185.38;5022724;28;20592;-91
2022/12/12 20:44:17;;;;;;;29.30;16.35;;;;;;;7.46;69.79;100192.69;4987437;28;20034;-94
2022/12/12 20:47:38;;;;;;;24.67;12.48;;;;;;;7.44;65.98;100184.00;5078179;23;20020;-90
2022/12/12 20:51:06;;;;;;;15.02;7.50;;;;;;;7.31;60.43;100166.50;4969426;28;20063;-90
2022/12/12 20:53:58;;;;;;;10.30;5.78;;;;;;;7.15;61.54;100169.00;4942473;28;20111;-86
2022/12/12 20:56:26;;;;;;;12.52;6.45;;;;;;;6.93;62.97;100140.84;5426615;23;20056;-85
2022/12/12 21:02:24;;;;;;;11.93;7.00;;;;;;;6.79;65.34;100160.91;5206393;23;19910;-85
2022/12/12 21:20:11;;;;;;;14.52;7.53;;;;;;;6.27;69.99;100174.72;5216428;22;20122;-87
2022/12/12 21:26:20;;;;;;;12.97;7.90;;;;;;;6.08;71.27;100148.09;5090282;22;20072;-85
2022/12/12 21:29:08;;;;;;;12.88;7.60;;;;;;;5.71;70.86;100136.34;5265191;23;20340;-87
2022/12/12 21:37:33;;;;;;;14.13;8.45;;;;;;;5.43;72.49;100150.53;5401315;22;20090;-86
2022/12/12 21:40:03;;;;;;;15.10;8.18;;;;;;;5.29;72.05;100157.97;4991082;28;20121;-88
2022/12/12 21:42:30;;;;;;;17.42;8.43;;;;;;;5.48;73.35;100182.97;4998981;28;20114;-87
2022/12/12 21:45:07;;;;;;;15.52;9.63;;;;;;;5.31;73.50;100154.31;5006822;28;20350;-85
2022/12/12 21:47:39;;;;;;;13.15;7.75;;;;;;;5.20;74.01;100137.50;4975374;28;20101;-88
2022/12/12 21:50:09;;;;;;;13.43;7.07;;;;;;;5.26;74.19;100173.38;4952793;29;20380;-88
2022/12/12 21:57:56;;;;;;;15.90;8.27;;;;;;;4.58;76.48;100130.63;5123468;22;20106;-86
2022/12/12 22:00:38;;;;;;;11.75;6.82;;;;;;;4.76;76.56;100182.25;4961667;28;20047;-90
2022/12/12 22:03:22;;;;;;;12.13;6.68;;;;;;;4.76;76.88;100195.56;4982542;28;20081;-88